createdAt,value
2017-09-20T00:00:02.800Z,10.89
2017-09-20T00:05:02.466Z,10.84
2017-09-20T00:10:02.695Z,10.77
2017-09-20T00:15:02.910Z,10.71
2017-09-20T00:20:02.268Z,10.66
2017-09-20T00:25:02.505Z,10.62
2017-09-20T00:30:02.688Z,10.58
2017-09-20T00:35:02.893Z,10.56
2017-09-20T00:40:03.141Z,10.54
2017-09-20T00:45:02.373Z,10.53
2017-09-20T00:50:02.728Z,10.51
2017-09-20T00:55:02.943Z,10.51
2017-09-20T01:00:02.141Z,10.49
2017-09-20T01:05:02.513Z,10.5
2017-09-20T01:10:02.719Z,10.49
2017-09-20T01:15:02.891Z,10.5
2017-09-20T01:20:02.914Z,10.53
2017-09-20T01:25:03.123Z,10.53
2017-09-20T01:30:02.304Z,10.52
2017-09-20T01:35:02.235Z,10.48
2017-09-20T01:40:02.427Z,10.46
2017-09-20T01:45:02.631Z,10.44
2017-09-20T01:50:02.344Z,10.41
2017-09-20T01:55:02.565Z,10.37
2017-09-20T02:00:02.799Z,10.33
2017-09-20T02:05:02.444Z,10.31
2017-09-20T02:10:02.665Z,10.29
2017-09-20T02:15:02.913Z,10.27
2017-09-20T02:20:02.279Z,10.24
2017-09-20T02:25:02.486Z,10.23
2017-09-20T02:30:02.667Z,10.23
2017-09-20T02:35:02.657Z,10.23
2017-09-20T02:40:02.889Z,10.24
2017-09-20T02:45:03.126Z,10.23
2017-09-20T02:50:02.368Z,10.24
2017-09-20T02:55:02.553Z,10.23
2017-09-20T03:00:02.765Z,10.21
2017-09-20T03:05:02.874Z,10.19
2017-09-20T03:10:03.087Z,10.16
2017-09-20T03:15:02.287Z,10.15
2017-09-20T03:20:02.609Z,10.15
2017-09-20T03:25:02.858Z,10.14
2017-09-20T03:30:03.202Z,10.1
2017-09-20T03:35:02.863Z,10.07
2017-09-20T03:40:03.053Z,10.06
2017-09-20T03:45:02.291Z,10.04
2017-09-20T03:50:02.441Z,10.03
2017-09-20T03:55:02.639Z,10.03
2017-09-20T04:00:02.823Z,10
2017-09-20T04:05:02.227Z,10
2017-09-20T04:10:02.390Z,9.99
2017-09-20T04:15:02.552Z,10
2017-09-20T04:20:02.880Z,10.03
2017-09-20T04:25:03.108Z,10.07
2017-09-20T04:30:02.290Z,10.09
2017-09-20T04:35:02.927Z,10.07
2017-09-20T04:40:03.116Z,10.11
2017-09-20T04:45:02.351Z,10.15
2017-09-20T04:50:02.620Z,10.16
2017-09-20T04:55:02.834Z,10.18
2017-09-20T05:00:03.034Z,10.18
2017-09-20T05:05:02.251Z,10.16
2017-09-20T05:10:02.474Z,10.2
2017-09-20T05:15:02.737Z,10.21
2017-09-20T05:20:03.002Z,10.21
2017-09-20T05:25:02.234Z,10.23
2017-09-20T05:30:02.413Z,10.24
2017-09-20T05:35:02.681Z,10.29
2017-09-20T05:40:02.916Z,10.31
2017-09-20T05:45:03.112Z,10.37
2017-09-20T05:50:02.833Z,10.39
2017-09-20T05:55:03.059Z,10.42
2017-09-20T06:00:02.224Z,10.44
2017-09-20T06:05:02.953Z,10.49
2017-09-20T06:10:02.138Z,10.51
2017-09-20T06:15:02.389Z,10.55
2017-09-20T06:20:02.717Z,10.62
2017-09-20T06:25:02.890Z,10.68
2017-09-20T06:30:03.096Z,10.81
2017-09-20T06:35:02.718Z,10.89
2017-09-20T06:40:02.869Z,10.99
2017-09-20T06:45:03.088Z,11.03
2017-09-20T06:50:02.129Z,11.1
2017-09-20T06:55:02.325Z,11.19
2017-09-20T07:00:02.490Z,11.34
2017-09-20T07:05:02.943Z,11.51
2017-09-20T07:10:02.119Z,11.6
2017-09-20T07:15:02.324Z,11.57
2017-09-20T07:20:02.995Z,11.59
2017-09-20T07:25:02.187Z,11.63
2017-09-20T07:30:02.412Z,11.67
2017-09-20T07:35:02.126Z,11.69
2017-09-20T07:40:02.308Z,11.77
2017-09-20T07:45:02.530Z,11.9
2017-09-20T07:50:02.450Z,11.99
2017-09-20T07:55:02.636Z,12.05
2017-09-20T08:00:02.894Z,12.13
2017-09-20T08:05:02.970Z,12.15
2017-09-20T08:10:02.170Z,12.22
2017-09-20T08:15:02.348Z,12.32
2017-09-20T08:20:02.417Z,12.41
2017-09-20T08:25:02.664Z,12.56
2017-09-20T08:30:02.820Z,12.75
2017-09-20T08:35:02.388Z,12.85
2017-09-20T08:40:02.590Z,12.93
2017-09-20T08:45:02.849Z,13.01
2017-09-20T08:50:02.209Z,13.04
2017-09-20T08:55:02.415Z,13.17
2017-09-20T09:00:02.647Z,13.38
2017-09-20T09:05:02.321Z,13.48
2017-09-20T09:10:02.496Z,13.55
2017-09-20T09:15:02.722Z,13.62
2017-09-20T09:20:02.997Z,13.61
2017-09-20T09:25:02.182Z,13.53
2017-09-20T09:30:02.359Z,13.43
2017-09-20T09:35:02.812Z,13.52
2017-09-20T09:40:03.071Z,13.69
2017-09-20T09:45:02.290Z,13.86
2017-09-20T09:50:02.901Z,13.91
2017-09-20T09:55:03.088Z,13.97
2017-09-20T10:00:02.294Z,14.14
2017-09-20T10:05:02.948Z,14.2
2017-09-20T10:10:02.143Z,14.13
2017-09-20T10:15:02.382Z,14.22
2017-09-20T10:20:02.197Z,14.36
2017-09-20T10:25:02.421Z,14.6
2017-09-20T10:30:02.613Z,14.57
2017-09-20T10:35:02.134Z,14.37
2017-09-20T10:40:02.346Z,14.21
2017-09-20T10:45:02.518Z,14.07
2017-09-20T10:50:02.419Z,14.06
2017-09-20T10:55:02.618Z,14.12
2017-09-20T11:00:02.800Z,14.22
2017-09-20T11:05:03.044Z,14.2
2017-09-20T11:10:02.291Z,14.2
2017-09-20T11:15:02.464Z,14.23
2017-09-20T11:20:02.458Z,14.26
2017-09-20T11:25:02.677Z,14.36
2017-09-20T11:30:02.886Z,14.42
2017-09-20T11:35:02.484Z,14.42
2017-09-20T11:40:02.719Z,14.39
2017-09-20T11:45:02.962Z,14.49
2017-09-20T11:50:02.281Z,14.52
2017-09-20T11:55:02.517Z,14.58
2017-09-20T12:00:02.855Z,14.68
2017-09-20T12:05:03.059Z,14.67
2017-09-20T12:10:02.254Z,14.52
2017-09-20T12:15:02.445Z,14.36
2017-09-20T12:20:02.841Z,14.27
2017-09-20T12:25:02.992Z,14.28
2017-09-20T12:30:02.168Z,14.33
2017-09-20T12:35:02.588Z,14.47
2017-09-20T12:40:02.782Z,14.54
2017-09-20T12:45:02.965Z,14.58
2017-09-20T12:50:02.560Z,14.63
2017-09-20T12:55:02.822Z,14.66
2017-09-20T13:00:03.008Z,14.65
2017-09-20T13:05:02.749Z,14.66
2017-09-20T13:10:02.996Z,14.78
2017-09-20T13:15:02.228Z,14.84
2017-09-20T13:20:02.307Z,14.8
2017-09-20T13:25:02.493Z,14.72
2017-09-20T13:30:02.709Z,14.64
2017-09-20T13:35:02.955Z,14.65
2017-09-20T13:40:02.152Z,14.67
2017-09-20T13:45:02.313Z,14.73
2017-09-20T13:50:02.718Z,14.84
2017-09-20T13:55:02.886Z,14.87
2017-09-20T14:00:03.091Z,14.94
2017-09-20T14:05:02.776Z,14.97
2017-09-20T14:10:03.021Z,15.03
2017-09-20T14:15:02.235Z,15.01
2017-09-20T14:20:02.619Z,15.03
2017-09-20T14:25:02.815Z,14.94
2017-09-20T14:30:02.980Z,14.8
2017-09-20T14:35:02.668Z,14.72
2017-09-20T14:40:02.810Z,14.66
2017-09-20T14:45:03.003Z,14.64
2017-09-20T14:50:02.390Z,14.64
2017-09-20T14:55:02.573Z,14.68
2017-09-20T15:00:02.772Z,14.78
2017-09-20T15:05:02.867Z,14.78
2017-09-20T15:10:03.061Z,14.68
2017-09-20T15:15:02.257Z,14.5
2017-09-20T15:20:02.793Z,14.4
2017-09-20T15:25:02.998Z,14.37
2017-09-20T15:30:02.221Z,14.34
2017-09-20T15:35:02.489Z,14.32
2017-09-20T15:40:02.720Z,14.32
2017-09-20T15:45:02.894Z,14.3
2017-09-20T15:50:02.783Z,14.25
2017-09-20T15:55:03.009Z,14.19
2017-09-20T16:00:02.192Z,14.15
2017-09-20T16:05:02.704Z,14.12
2017-09-20T16:10:02.961Z,14.11
2017-09-20T16:15:02.146Z,14.07
2017-09-20T16:20:03.094Z,14.03
2017-09-20T16:25:02.443Z,13.98
2017-09-20T16:30:02.667Z,13.95
2017-09-20T16:35:02.438Z,13.93
2017-09-20T16:40:02.650Z,13.9
2017-09-20T16:45:02.857Z,13.88
2017-09-20T16:50:02.508Z,13.83
2017-09-20T16:55:02.734Z,13.79
2017-09-20T17:00:02.934Z,13.74
2017-09-20T17:05:02.578Z,13.7
2017-09-20T17:10:02.736Z,13.64
2017-09-20T17:15:02.945Z,13.63
2017-09-20T17:20:02.571Z,13.59
2017-09-20T17:25:02.779Z,13.55
2017-09-20T17:30:02.967Z,13.54
2017-09-20T17:35:02.858Z,13.52
2017-09-20T17:40:03.069Z,13.49
2017-09-20T17:45:02.276Z,13.46
2017-09-20T17:50:02.548Z,13.4
2017-09-20T17:55:02.843Z,13.37
2017-09-20T18:00:03.058Z,13.35
2017-09-20T18:05:02.804Z,13.31
2017-09-20T18:10:03.054Z,13.27
2017-09-20T18:15:02.301Z,13.24
2017-09-20T18:20:02.996Z,13.19
2017-09-20T18:25:02.260Z,13.11
2017-09-20T18:30:02.466Z,13.07
2017-09-20T18:35:02.152Z,13.02
2017-09-20T18:40:02.378Z,12.97
2017-09-20T18:45:02.651Z,12.92
2017-09-20T18:50:02.593Z,12.86
2017-09-20T18:55:02.849Z,12.79
2017-09-20T19:00:03.079Z,12.74
2017-09-20T19:05:02.308Z,12.69
2017-09-20T19:10:02.524Z,12.63
2017-09-20T19:15:02.725Z,12.6
2017-09-20T19:20:02.546Z,12.56
2017-09-20T19:25:02.747Z,12.5
2017-09-20T19:30:02.940Z,12.47
2017-09-20T19:35:03.108Z,12.45
2017-09-20T19:40:02.333Z,12.45
2017-09-20T19:45:02.534Z,12.43
2017-09-20T19:50:02.760Z,12.4
2017-09-20T19:55:02.912Z,12.36
2017-09-20T20:00:03.134Z,12.33
2017-09-20T20:05:02.639Z,12.3
2017-09-20T20:10:02.857Z,12.23
2017-09-20T20:15:03.060Z,12.15
2017-09-20T20:20:02.987Z,12.04
2017-09-20T20:25:02.216Z,11.96
2017-09-20T20:30:02.416Z,11.85
2017-09-20T20:35:02.895Z,11.77
2017-09-20T20:40:03.126Z,11.68
2017-09-20T20:45:02.322Z,11.61
2017-09-20T20:50:02.887Z,11.54
2017-09-20T20:55:03.069Z,11.45
2017-09-20T21:00:02.245Z,11.37
2017-09-20T21:05:03.038Z,11.27
2017-09-20T21:10:02.240Z,11.19
2017-09-20T21:15:02.445Z,11.15
2017-09-20T21:20:02.855Z,11.13
2017-09-20T21:25:03.051Z,11.1
2017-09-20T21:30:02.219Z,11.05
2017-09-20T21:35:02.482Z,11.01
2017-09-20T21:40:02.668Z,10.99
2017-09-20T21:45:02.944Z,10.96
2017-09-20T21:50:02.225Z,10.89
2017-09-20T21:55:02.488Z,10.84
2017-09-20T22:00:03.015Z,10.79
2017-09-20T22:05:02.897Z,10.77
2017-09-20T22:10:02.278Z,10.73
2017-09-20T22:15:02.664Z,10.7
2017-09-20T22:20:02.219Z,10.68
2017-09-20T22:25:02.609Z,10.67
2017-09-20T22:30:03.010Z,10.66
2017-09-20T22:35:02.342Z,10.66
2017-09-20T22:40:02.692Z,10.68
2017-09-20T22:45:03.068Z,10.69
2017-09-20T22:50:03.048Z,10.69
2017-09-20T22:55:02.432Z,10.7
2017-09-20T23:00:02.787Z,10.69
2017-09-20T23:05:02.724Z,10.69
2017-09-20T23:10:02.926Z,10.68
2017-09-20T23:15:02.204Z,10.66
2017-09-20T23:20:02.530Z,10.63
2017-09-20T23:25:02.756Z,10.57
2017-09-20T23:30:02.960Z,10.56
2017-09-20T23:35:02.458Z,10.57
2017-09-20T23:40:02.654Z,10.54
2017-09-20T23:45:02.854Z,10.52
2017-09-20T23:50:03.037Z,10.49
2017-09-20T23:55:02.272Z,10.43
